createdAt,value
2023-03-15T00:02:04.206Z,4.47
2023-03-15T00:04:37.207Z,4.50
2023-03-15T00:07:11.429Z,4.66
2023-03-15T00:09:41.697Z,4.59
2023-03-15T00:12:12.505Z,4.57
2023-03-15T00:14:42.946Z,4.58
2023-03-15T00:17:16.791Z,4.69
2023-03-15T00:19:48.174Z,4.62
2023-03-15T00:22:23.407Z,4.62
2023-03-15T00:24:53.761Z,4.59
2023-03-15T00:27:24.018Z,4.45
2023-03-15T00:29:54.337Z,4.39
2023-03-15T00:32:24.645Z,4.35
2023-03-15T00:34:55.048Z,4.38
2023-03-15T00:37:28.530Z,4.43
2023-03-15T00:39:58.763Z,4.25
2023-03-15T00:42:29.806Z,4.27
2023-03-15T00:45:00.307Z,4.26
2023-03-15T00:47:30.694Z,4.35
2023-03-15T00:50:01.233Z,4.49
2023-03-15T00:52:38.788Z,4.57
2023-03-15T00:55:16.200Z,4.62
2023-03-15T00:57:49.436Z,4.63
2023-03-15T01:00:24.976Z,4.72
2023-03-15T01:02:56.663Z,4.73
2023-03-15T01:05:29.760Z,4.82
2023-03-15T01:08:03.181Z,4.91
2023-03-15T01:10:34.365Z,4.95
2023-03-15T01:13:07.267Z,4.89
2023-03-15T01:15:37.627Z,4.92
2023-03-15T01:18:08.207Z,4.85
2023-03-15T01:20:38.620Z,4.90
2023-03-15T01:23:12.244Z,4.85
2023-03-15T01:25:43.413Z,4.79
2023-03-15T01:28:13.961Z,4.89
2023-03-15T01:30:52.263Z,4.84
2023-03-15T01:33:23.169Z,4.85
2023-03-15T01:36:02.784Z,4.80
2023-03-15T01:38:37.341Z,4.70
2023-03-15T01:41:08.471Z,4.76
2023-03-15T01:43:38.907Z,4.64
2023-03-15T01:46:26.481Z,4.51
2023-03-15T01:49:12.597Z,4.36
2023-03-15T01:51:50.127Z,4.41
2023-03-15T01:54:31.059Z,4.37
2023-03-15T01:57:06.690Z,4.34
2023-03-15T01:59:43.447Z,4.46
2023-03-15T02:02:15.662Z,4.59
2023-03-15T02:04:52.273Z,4.71
2023-03-15T02:07:27.243Z,4.77
2023-03-15T02:10:08.325Z,4.79
2023-03-15T02:12:45.753Z,4.84
2023-03-15T02:15:19.236Z,4.91
2023-03-15T02:17:52.111Z,4.91
2023-03-15T02:20:35.567Z,4.90
2023-03-15T02:23:10.103Z,4.92
2023-03-15T02:25:54.951Z,4.90
2023-03-15T02:28:29.223Z,4.80
2023-03-15T02:31:00.794Z,4.76
2023-03-15T02:33:38.005Z,4.53
2023-03-15T02:36:14.704Z,4.48
2023-03-15T02:38:48.090Z,4.41
2023-03-15T02:41:22.312Z,4.08
2023-03-15T02:44:05.313Z,3.89
2023-03-15T02:46:36.002Z,3.77
2023-03-15T02:49:09.682Z,3.67
2023-03-15T02:51:50.568Z,3.57
2023-03-15T02:54:34.562Z,3.44
2023-03-15T02:57:05.984Z,3.36
2023-03-15T02:59:43.263Z,3.42
2023-03-15T03:02:17.915Z,3.33
2023-03-15T03:04:50.517Z,3.21
2023-03-15T03:07:22.616Z,3.13
2023-03-15T03:10:02.114Z,3.12
2023-03-15T03:12:44.949Z,3.03
2023-03-15T03:15:18.432Z,3.03
2023-03-15T03:17:52.072Z,3.02
2023-03-15T03:20:27.598Z,3.08
2023-03-15T03:23:06.643Z,3.14
2023-03-15T03:25:37.836Z,3.11
2023-03-15T03:28:08.412Z,3.09
2023-03-15T03:30:42.014Z,3.04
2023-03-15T03:33:20.306Z,2.96
2023-03-15T03:35:54.447Z,2.92
2023-03-15T03:38:28.270Z,2.86
2023-03-15T03:41:03.451Z,2.79
2023-03-15T03:43:35.731Z,2.73
2023-03-15T03:46:13.745Z,2.62
2023-03-15T03:48:51.066Z,2.58
2023-03-15T03:51:29.579Z,2.53
2023-03-15T03:53:59.962Z,2.60
2023-03-15T03:56:30.485Z,2.52
2023-03-15T03:59:00.779Z,2.48
2023-03-15T04:01:45.615Z,2.49
2023-03-15T04:04:16.278Z,2.45
2023-03-15T04:06:50.784Z,2.42
2023-03-15T04:09:27.732Z,2.41
2023-03-15T04:11:58.437Z,2.39
2023-03-15T04:14:29.198Z,2.34
2023-03-15T04:17:03.924Z,2.38
2023-03-15T04:19:37.745Z,2.39
2023-03-15T04:22:09.580Z,2.40
2023-03-15T04:24:50.758Z,2.32
2023-03-15T04:27:44.626Z,2.40
2023-03-15T04:30:38.055Z,2.41
2023-03-15T04:33:24.630Z,2.41
2023-03-15T04:36:18.246Z,2.32
2023-03-15T04:39:08.302Z,2.32
2023-03-15T04:41:51.025Z,2.31
2023-03-15T04:44:44.184Z,2.30
2023-03-15T04:47:37.286Z,2.38
2023-03-15T04:50:28.780Z,2.45
2023-03-15T04:53:17.320Z,2.41
2023-03-15T04:56:05.969Z,2.37
2023-03-15T04:59:00.297Z,2.33
2023-03-15T05:01:50.746Z,2.30
2023-03-15T05:04:39.580Z,2.26
2023-03-15T05:07:23.328Z,2.21
2023-03-15T05:09:53.678Z,2.18
2023-03-15T05:12:43.024Z,2.18
2023-03-15T05:15:35.853Z,2.13
2023-03-15T05:18:27.671Z,2.11
2023-03-15T05:21:29.923Z,2.08
2023-03-15T05:27:39.115Z,2.07
2023-03-15T05:30:36.426Z,2.11
2023-03-15T05:33:17.114Z,2.16
2023-03-15T05:36:08.790Z,2.18
2023-03-15T05:38:59.352Z,2.15
2023-03-15T05:41:50.893Z,2.15
2023-03-15T05:44:32.615Z,2.12
2023-03-15T05:47:21.682Z,2.25
2023-03-15T05:50:14.212Z,2.26
2023-03-15T05:52:57.144Z,2.42
2023-03-15T05:55:40.104Z,2.52
2023-03-15T05:58:36.053Z,2.81
2023-03-15T06:01:26.918Z,3.05
2023-03-15T06:04:08.349Z,2.96
2023-03-15T06:06:40.061Z,3.18
2023-03-15T06:09:12.592Z,3.47
2023-03-15T06:11:43.265Z,3.55
2023-03-15T06:14:18.875Z,3.56
2023-03-15T06:16:59.410Z,3.59
2023-03-15T06:19:32.194Z,3.62
2023-03-15T06:22:03.773Z,3.64
2023-03-15T06:24:41.433Z,3.67
2023-03-15T06:27:12.220Z,3.74
2023-03-15T06:29:45.434Z,3.94
2023-03-15T06:32:15.896Z,4.10
2023-03-15T06:34:46.479Z,4.43
2023-03-15T06:37:29.072Z,4.61
2023-03-15T06:40:06.073Z,4.89
2023-03-15T06:42:36.924Z,5.12
2023-03-15T06:45:13.227Z,5.40
2023-03-15T06:47:43.525Z,5.55
2023-03-15T06:50:15.099Z,5.75
2023-03-15T06:52:45.570Z,5.43
2023-03-15T06:55:18.382Z,5.44
2023-03-15T06:57:49.244Z,5.28
2023-03-15T07:00:23.469Z,5.03
2023-03-15T07:02:53.853Z,4.99
2023-03-15T07:05:24.418Z,4.94
2023-03-15T07:07:54.844Z,4.83
2023-03-15T07:10:25.110Z,4.89
2023-03-15T07:12:55.472Z,4.92
2023-03-15T07:15:28.549Z,4.86
2023-03-15T07:17:58.843Z,4.73
2023-03-15T07:20:29.171Z,4.95
2023-03-15T07:22:59.502Z,4.98
2023-03-15T07:25:29.863Z,5.03
2023-03-15T07:28:00.133Z,5.04
2023-03-15T07:30:33.190Z,5.32
2023-03-15T07:33:03.469Z,6.20
2023-03-15T07:35:33.783Z,6.64
2023-03-15T07:38:06.660Z,7.30
2023-03-15T07:40:36.959Z,7.07
2023-03-15T07:43:07.289Z,6.90
2023-03-15T07:45:40.327Z,6.63
2023-03-15T07:48:11.288Z,6.22
2023-03-15T07:50:41.790Z,5.59
2023-03-15T07:53:12.263Z,5.33
2023-03-15T07:55:42.720Z,4.99
2023-03-15T07:58:13.063Z,4.82
2023-03-15T08:00:46.026Z,4.66
2023-03-15T08:03:16.356Z,4.67
2023-03-15T08:05:46.668Z,4.64
2023-03-15T08:08:16.937Z,4.59
2023-03-15T08:10:48.308Z,4.69
2023-03-15T08:13:18.613Z,4.69
2023-03-15T08:15:51.612Z,4.57
2023-03-15T08:18:21.902Z,4.53
2023-03-15T08:20:52.348Z,4.42
2023-03-15T08:23:22.643Z,4.59
2023-03-15T08:25:53.190Z,4.65
2023-03-15T08:28:24.642Z,4.43
2023-03-15T08:30:57.546Z,4.34
2023-03-15T08:33:30.270Z,4.17
2023-03-15T08:36:01.277Z,4.29
2023-03-15T08:38:31.663Z,4.15
2023-03-15T08:41:02.608Z,4.20
2023-03-15T08:43:32.978Z,4.07
2023-03-15T08:46:05.990Z,4.16
2023-03-15T08:48:36.265Z,4.14
2023-03-15T08:51:07.375Z,4.02
2023-03-15T08:53:38.510Z,4.05
2023-03-15T08:56:09.449Z,4.00
2023-03-15T08:58:39.992Z,4.10
2023-03-15T09:01:15.185Z,4.09
2023-03-15T09:03:45.856Z,4.24
2023-03-15T09:06:16.197Z,4.21
2023-03-15T09:08:46.607Z,4.10
2023-03-15T09:11:16.925Z,4.15
2023-03-15T09:13:47.184Z,4.11
2023-03-15T09:16:20.232Z,4.10
2023-03-15T09:18:50.753Z,4.09
2023-03-15T09:21:21.053Z,3.98
2023-03-15T09:23:51.453Z,4.06
2023-03-15T09:26:23.420Z,4.19
2023-03-15T09:28:53.744Z,4.42
2023-03-15T09:31:27.561Z,4.71
2023-03-15T09:33:58.727Z,4.72
2023-03-15T09:36:29.174Z,4.50
2023-03-15T09:38:59.578Z,4.70
2023-03-15T09:41:46.050Z,4.70
2023-03-15T09:44:31.290Z,4.76
2023-03-15T09:47:19.250Z,4.79
2023-03-15T09:49:55.457Z,4.61
2023-03-15T09:52:36.717Z,4.66
2023-03-15T09:55:16.218Z,4.54
2023-03-15T09:57:53.546Z,4.47
2023-03-15T10:00:28.933Z,4.41
2023-03-15T10:03:07.375Z,4.45
2023-03-15T10:05:44.645Z,4.48
2023-03-15T10:08:17.672Z,4.54
2023-03-15T10:10:55.075Z,4.59
2023-03-15T10:13:42.493Z,4.69
2023-03-15T10:16:31.970Z,4.75
2023-03-15T10:19:17.500Z,4.84
2023-03-15T10:21:58.671Z,4.97
2023-03-15T10:24:39.080Z,5.25
2023-03-15T10:27:20.913Z,5.16
2023-03-15T10:29:53.751Z,5.28
2023-03-15T10:32:30.410Z,5.61
2023-03-15T10:35:12.247Z,5.77
2023-03-15T10:37:42.707Z,6.18
2023-03-15T10:40:16.475Z,6.75
2023-03-15T10:42:49.079Z,7.01
2023-03-15T10:45:25.749Z,6.86
2023-03-15T10:48:00.697Z,6.86
2023-03-15T10:50:36.205Z,6.70
2023-03-15T10:53:14.214Z,6.26
2023-03-15T10:55:47.712Z,5.93
2023-03-15T10:58:31.568Z,6.21
2023-03-15T11:01:09.716Z,6.59
2023-03-15T11:03:41.077Z,6.40
2023-03-15T11:06:29.856Z,6.39
2023-03-15T11:09:14.664Z,6.67
2023-03-15T11:12:03.931Z,6.65
2023-03-15T11:14:40.918Z,6.55
2023-03-15T11:17:23.488Z,6.46
2023-03-15T11:19:59.978Z,6.46
2023-03-15T11:22:33.226Z,6.30
2023-03-15T11:25:03.656Z,6.67
2023-03-15T11:27:34.709Z,6.73
2023-03-15T11:30:05.534Z,6.93
2023-03-15T11:32:36.564Z,7.02
2023-03-15T11:35:13.449Z,6.89
2023-03-15T11:37:55.185Z,6.84
2023-03-15T11:40:36.557Z,6.78
2023-03-15T11:43:13.660Z,6.74
2023-03-15T11:45:49.548Z,6.88
2023-03-15T11:48:44.641Z,7.12
2023-03-15T11:51:16.997Z,7.55
2023-03-15T11:53:58.534Z,8.48
2023-03-15T11:56:32.312Z,10.02
2023-03-15T11:59:11.332Z,11.70
2023-03-15T12:01:49.804Z,12.58
2023-03-15T12:04:40.767Z,14.12
2023-03-15T12:08:22.042Z,14.24
2023-03-15T12:10:55.862Z,12.96
2023-03-15T12:13:29.801Z,12.77
2023-03-15T12:16:00.963Z,12.21
2023-03-15T12:18:43.112Z,11.37
2023-03-15T12:21:26.870Z,10.73
2023-03-15T12:24:05.318Z,11.20
2023-03-15T12:26:44.918Z,10.69
2023-03-15T12:29:24.136Z,10.10
2023-03-15T12:32:00.167Z,9.50
2023-03-15T12:34:40.075Z,9.35
2023-03-15T12:37:17.183Z,9.17
2023-03-15T12:39:52.182Z,8.94
2023-03-15T12:43:13.374Z,8.90
2023-03-15T12:45:52.586Z,8.58
2023-03-15T12:48:26.895Z,8.15
2023-03-15T12:51:01.408Z,7.93
2023-03-15T12:53:43.942Z,7.81
2023-03-15T12:56:44.503Z,7.48
2023-03-15T12:59:41.334Z,7.24
2023-03-15T13:02:43.288Z,6.99
2023-03-15T13:05:26.668Z,6.69
2023-03-15T13:08:07.243Z,6.51
2023-03-15T13:11:14.019Z,6.10
2023-03-15T13:14:10.793Z,5.78
2023-03-15T13:16:47.855Z,5.60
2023-03-15T13:19:25.784Z,5.53
2023-03-15T13:22:08.905Z,5.31
2023-03-15T13:24:52.468Z,5.09
2023-03-15T13:27:45.643Z,4.75
2023-03-15T13:30:36.543Z,4.44
2023-03-15T13:33:21.138Z,4.04
2023-03-15T13:36:01.217Z,4.07
2023-03-15T13:38:35.692Z,4.05
2023-03-15T13:41:17.730Z,4.22
2023-03-15T13:43:48.916Z,5.58
2023-03-15T13:46:22.920Z,6.21
2023-03-15T13:48:55.102Z,6.97
2023-03-15T13:51:32.038Z,6.01
2023-03-15T13:54:07.868Z,5.61
2023-03-15T13:56:49.318Z,5.56
2023-03-15T13:59:21.118Z,7.45
2023-03-15T14:01:54.158Z,10.89
2023-03-15T14:04:27.282Z,13.04
2023-03-15T14:07:38.021Z,14.55
2023-03-15T14:10:25.920Z,15.24
2023-03-15T14:12:57.990Z,16.26
2023-03-15T14:15:38.381Z,16.91
2023-03-15T14:18:21.110Z,16.70
2023-03-15T14:21:00.089Z,16.57
2023-03-15T14:23:34.006Z,16.82
2023-03-15T14:26:13.858Z,14.88
2023-03-15T14:28:44.920Z,12.37
2023-03-15T14:31:25.055Z,10.81
2023-03-15T14:34:00.918Z,10.29
2023-03-15T14:36:38.608Z,9.69
2023-03-15T14:39:21.955Z,9.20
2023-03-15T14:41:52.334Z,9.59
2023-03-15T14:44:22.850Z,9.39
2023-03-15T14:46:53.810Z,10.02
2023-03-15T14:49:28.608Z,9.78
2023-03-15T14:52:03.806Z,9.51
2023-03-15T14:54:37.427Z,11.55
2023-03-15T14:57:07.852Z,12.02
2023-03-15T14:59:38.242Z,10.29
2023-03-15T15:02:09.294Z,8.95
2023-03-15T15:04:40.922Z,8.01
2023-03-15T15:07:14.433Z,9.07
2023-03-15T15:09:52.217Z,11.45
2023-03-15T15:12:22.628Z,12.89
2023-03-15T15:14:53.082Z,14.40
2023-03-15T15:17:23.714Z,13.45
2023-03-15T15:19:54.153Z,12.94
2023-03-15T15:22:24.776Z,14.45
2023-03-15T15:24:57.703Z,14.09
2023-03-15T15:27:28.138Z,14.80
2023-03-15T15:29:58.498Z,13.99
2023-03-15T15:32:29.008Z,14.43
2023-03-15T15:34:59.543Z,14.50
2023-03-15T15:37:29.968Z,12.97
2023-03-15T15:40:04.225Z,11.31
2023-03-15T15:42:34.598Z,11.47
2023-03-15T15:45:13.312Z,10.45
2023-03-15T15:47:44.133Z,9.94
2023-03-15T15:50:17.568Z,9.23
2023-03-15T15:52:54.358Z,8.73
2023-03-15T15:55:33.962Z,8.29
2023-03-15T15:58:05.397Z,8.20
2023-03-15T16:00:35.728Z,7.94
2023-03-15T16:03:15.104Z,7.81
2023-03-15T16:05:48.543Z,7.56
2023-03-15T16:08:24.727Z,7.24
2023-03-15T16:10:57.798Z,7.06
2023-03-15T16:13:28.117Z,6.99
2023-03-15T16:15:58.590Z,6.86
2023-03-15T16:18:28.940Z,6.81
2023-03-15T16:20:59.508Z,6.60
2023-03-15T16:23:29.904Z,6.41
2023-03-15T16:26:02.821Z,6.22
2023-03-15T16:28:33.330Z,6.14
2023-03-15T16:31:03.890Z,6.18
2023-03-15T16:33:35.076Z,5.86
2023-03-15T16:36:05.517Z,5.53
2023-03-15T16:38:38.946Z,5.60
2023-03-15T16:41:16.735Z,5.51
2023-03-15T16:43:49.423Z,5.39
2023-03-15T16:46:20.638Z,5.25
2023-03-15T16:48:50.994Z,5.20
2023-03-15T16:51:21.406Z,5.08
2023-03-15T16:53:55.430Z,5.05
2023-03-15T16:56:36.676Z,4.91
2023-03-15T16:59:07.727Z,4.96
2023-03-15T17:01:38.305Z,5.10
2023-03-15T17:04:12.465Z,5.10
2023-03-15T17:06:45.406Z,5.27
2023-03-15T17:09:18.855Z,5.32
2023-03-15T17:11:56.052Z,5.25
2023-03-15T17:14:34.774Z,5.22
2023-03-15T17:17:05.441Z,5.35
2023-03-15T17:19:36.252Z,5.33
2023-03-15T17:22:11.141Z,5.24
2023-03-15T17:24:43.619Z,5.30
2023-03-15T17:27:25.627Z,5.30
2023-03-15T17:29:56.059Z,5.28
2023-03-15T17:32:26.583Z,5.08
2023-03-15T17:34:59.137Z,4.93
2023-03-15T17:37:35.502Z,4.91
2023-03-15T17:40:11.790Z,4.86
2023-03-15T17:42:45.005Z,4.92
2023-03-15T17:45:20.886Z,4.77
2023-03-15T17:47:51.262Z,4.66
2023-03-15T17:50:22.516Z,4.53
2023-03-15T17:52:56.798Z,4.52
2023-03-15T17:55:30.025Z,4.59
2023-03-15T17:58:03.244Z,4.66
2023-03-15T18:00:34.570Z,4.51
2023-03-15T18:03:04.867Z,4.41
2023-03-15T18:05:35.204Z,4.39
2023-03-15T18:08:06.778Z,4.41
2023-03-15T18:10:41.711Z,4.52
2023-03-15T18:13:21.691Z,4.64
2023-03-15T18:15:53.046Z,4.66
2023-03-15T18:18:23.401Z,4.67
2023-03-15T18:20:54.088Z,4.66
2023-03-15T18:23:24.630Z,4.67
2023-03-15T18:25:57.819Z,4.66
2023-03-15T18:28:30.931Z,4.59
2023-03-15T18:31:01.309Z,4.58
2023-03-15T18:33:31.935Z,4.50
2023-03-15T18:36:02.392Z,4.45
2023-03-15T18:38:33.217Z,4.41
2023-03-15T18:41:03.781Z,4.34
2023-03-15T18:43:37.022Z,4.33
2023-03-15T18:46:07.651Z,4.31
2023-03-15T18:48:41.071Z,4.20
2023-03-15T18:51:13.890Z,4.22
2023-03-15T18:53:46.554Z,4.22
2023-03-15T18:56:21.448Z,4.27
2023-03-15T18:58:55.901Z,4.30
2023-03-15T19:01:27.222Z,4.24
2023-03-15T19:03:57.992Z,4.12
2023-03-15T19:06:28.517Z,4.08
2023-03-15T19:09:00.854Z,4.13
2023-03-15T19:11:32.448Z,4.11
2023-03-15T19:14:05.410Z,4.15
2023-03-15T19:16:38.433Z,4.08
2023-03-15T19:19:09.110Z,3.98
2023-03-15T19:21:39.561Z,3.99
2023-03-15T19:24:11.133Z,3.97
2023-03-15T19:26:42.019Z,3.96
2023-03-15T19:29:15.002Z,3.94
2023-03-15T19:31:45.430Z,3.79
2023-03-15T19:34:15.759Z,3.69
2023-03-15T19:36:46.122Z,3.67
2023-03-15T19:39:16.503Z,3.63
2023-03-15T19:41:47.259Z,3.61
2023-03-15T19:44:22.491Z,3.64
2023-03-15T19:46:53.231Z,3.69
2023-03-15T19:49:24.154Z,3.66
2023-03-15T19:51:54.618Z,3.69
2023-03-15T19:54:25.200Z,3.66
2023-03-15T19:56:55.898Z,3.67
2023-03-15T19:59:33.267Z,3.67
2023-03-15T20:02:03.671Z,3.67
2023-03-15T20:04:34.101Z,3.65
2023-03-15T20:07:04.521Z,3.59
2023-03-15T20:09:38.958Z,3.46
2023-03-15T20:12:10.523Z,3.41
2023-03-15T20:14:43.915Z,3.39
2023-03-15T20:17:15.310Z,3.35
2023-03-15T20:19:45.833Z,3.33
2023-03-15T20:22:16.251Z,3.34
2023-03-15T20:24:46.947Z,3.25
2023-03-15T20:27:17.443Z,3.20
2023-03-15T20:29:51.995Z,3.16
2023-03-15T20:32:22.432Z,3.17
2023-03-15T20:34:57.105Z,3.13
2023-03-15T20:37:27.611Z,3.10
2023-03-15T20:39:58.082Z,3.11
2023-03-15T20:42:28.545Z,3.08
2023-03-15T20:45:01.555Z,3.06
2023-03-15T20:47:31.969Z,3.08
2023-03-15T20:50:02.401Z,3.04
2023-03-15T20:52:34.336Z,3.05
2023-03-15T20:55:08.026Z,3.04
2023-03-15T20:57:41.572Z,3.03
2023-03-15T21:00:20.122Z,3.08
2023-03-15T21:02:51.395Z,2.96
2023-03-15T21:05:24.333Z,2.92
2023-03-15T21:07:56.028Z,2.92
2023-03-15T21:10:26.757Z,2.98
2023-03-15T21:12:57.388Z,3.02
2023-03-15T21:15:30.571Z,2.89
2023-03-15T21:18:01.070Z,2.85
2023-03-15T21:20:32.948Z,2.86
2023-03-15T21:23:03.347Z,2.86
2023-03-15T21:25:33.808Z,2.88
2023-03-15T21:28:04.248Z,2.81
2023-03-15T21:30:37.984Z,2.76
2023-03-15T21:33:08.373Z,2.72
2023-03-15T21:35:41.443Z,2.69
2023-03-15T21:38:11.892Z,2.69
2023-03-15T21:40:46.569Z,2.71
2023-03-15T21:43:17.364Z,2.72
2023-03-15T21:45:51.004Z,2.76
2023-03-15T21:48:21.724Z,2.71
2023-03-15T21:50:54.146Z,2.76
2023-03-15T21:53:27.262Z,2.68
2023-03-15T21:55:59.657Z,2.66
2023-03-15T21:58:31.476Z,2.70
2023-03-15T22:01:08.114Z,2.67
2023-03-15T22:03:41.865Z,2.75
2023-03-15T22:06:13.141Z,2.77
2023-03-15T22:08:43.333Z,2.73
2023-03-15T22:11:13.982Z,2.70
2023-03-15T22:13:44.755Z,2.61
2023-03-15T22:16:17.975Z,2.59
2023-03-15T22:18:54.118Z,2.48
2023-03-15T22:21:27.839Z,2.40
2023-03-15T22:23:58.245Z,2.38
2023-03-15T22:26:28.718Z,2.39
2023-03-15T22:28:59.130Z,2.32
2023-03-15T22:31:32.887Z,2.19
2023-03-15T22:34:04.903Z,2.05
2023-03-15T22:36:38.890Z,1.95
2023-03-15T22:39:09.313Z,1.93
2023-03-15T22:41:39.759Z,1.92
2023-03-15T22:44:10.105Z,1.94
2023-03-15T22:46:44.749Z,2.11
2023-03-15T22:49:15.170Z,2.22
2023-03-15T22:51:45.858Z,2.32
2023-03-15T22:54:16.214Z,2.38
2023-03-15T22:56:46.795Z,2.43
2023-03-15T22:59:17.238Z,2.39
2023-03-15T23:01:50.267Z,2.35
2023-03-15T23:04:20.710Z,2.38
2023-03-15T23:06:54.645Z,2.39
2023-03-15T23:09:24.933Z,2.44
2023-03-15T23:11:55.384Z,2.36
2023-03-15T23:14:25.888Z,2.17
2023-03-15T23:16:59.340Z,2.07
2023-03-15T23:19:29.677Z,2.08
2023-03-15T23:22:00.029Z,2.08
2023-03-15T23:24:30.769Z,2.18
2023-03-15T23:27:03.525Z,2.15
2023-03-15T23:29:47.162Z,2.09
2023-03-15T23:32:27.802Z,2.04
2023-03-15T23:34:58.177Z,1.99
2023-03-15T23:37:28.765Z,1.95
2023-03-15T23:39:59.172Z,1.93
2023-03-15T23:42:32.703Z,1.88
2023-03-15T23:45:03.071Z,1.88
2023-03-15T23:47:35.992Z,1.82
2023-03-15T23:50:06.750Z,1.89
2023-03-15T23:52:37.603Z,1.90
2023-03-15T23:55:09.281Z,1.86
2023-03-15T23:57:39.688Z,1.81
